首页
METAR-TAF:

METAR-TAF

机场 :

威尔明顿, 特拉华州, 美国

纬度: 39-40-22N, 经度: 075-36-03W, 海拔: 24米

当前天气观测

该预报发布于28分钟前的16:51 UTC
风速4节,风向
温度 9°C
湿度 43%
气压 1026 hPa
能見度: 16.1公里
天空无云

METAR: KILG 171651Z 09004KT 10SM CLR 09/M03 A3029 RMK AO2 SLP256 T00891033

时间: 12:19 (17:19 UTC)

预报

该预报发布于5小时和59分钟前的11:20 UTC
预报有效从17日的 12点(UTC)到 18日的 12点(UTC)
风速5节,风向北转东北
能見度: 10公里
少量云层高于25000英尺
从 17日的 2200点(UTC)
风速6节,风向
能見度: 10公里
散云层高于20000英尺
从 18日的 1000点(UTC)
风速5节,风向
能見度: 10公里
多云层高于4500英尺

TAF: KILG 171120Z 1712/1812 02005KT P6SM FEW250 FM172200 08006KT P6SM SCT200 FM181000 09005KT P6SM BKN045

超过4000个机场的气象观测和天气预报(METAR&TAF报告)。

可查询的气象台以黄色和红色小点在地图上表示。

将鼠标移到小点上方,可查看气象台名称。

然后点击查看天气观测和预报。

如需切换地图:点击带黑十字的绿色按钮放大地图;点击带横线的绿色按钮缩小地图;或者点击绿色箭头查看邻近地区的地图。


METAR-TAF: